Time;durP1;ratioP1;P1;durP2;ratioP2;P2;SDS_P1;SDS_P2;PMS_P1;PMS_P2;Temp;Humidity;BMP_temperature;BMP_pressure;BME280_temperature;BME280_humidity;BME280_pressure;Samples;Min_cycle;Max_cycle;Signal;HPM_P1;HPM_P2
2023/06/03 00:01:05;;;;;;;0.80;0.60;;;14.40;99.90;;;;;;5090458;28;20241;-71
2023/06/03 00:03:33;;;;;;;0.95;0.75;;;14.40;99.90;;;;;;5081353;28;20235;-70
2023/06/03 00:06:02;;;;;;;0.70;0.60;;;14.30;99.90;;;;;;5089949;28;20210;-71
2023/06/03 00:08:30;;;;;;;0.60;0.57;;;14.30;99.90;;;;;;5091462;28;20236;-70
2023/06/03 00:10:58;;;;;;;0.70;0.60;;;14.30;99.90;;;;;;5093936;28;20222;-70
2023/06/03 00:13:26;;;;;;;2.15;0.63;;;14.20;99.90;;;;;;5090424;28;20601;-70
2023/06/03 00:15:55;;;;;;;2.17;0.93;;;14.20;99.90;;;;;;5093224;28;20214;-69
2023/06/03 00:18:23;;;;;;;2.00;1.00;;;14.20;99.90;;;;;;5093988;28;20211;-69
2023/06/03 00:20:52;;;;;;;0.70;0.50;;;14.30;99.90;;;;;;5067849;28;20219;-68
2023/06/03 00:23:20;;;;;;;1.15;0.77;;;14.20;99.90;;;;;;5089408;28;20645;-69
2023/06/03 00:25:48;;;;;;;0.70;0.60;;;14.30;99.90;;;;;;5093237;28;20206;-69
2023/06/03 00:28:16;;;;;;;1.10;0.77;;;14.30;99.90;;;;;;5085533;28;20195;-69
2023/06/03 00:30:44;;;;;;;0.70;0.70;;;14.20;99.90;;;;;;5093308;28;20226;-69
2023/06/03 00:33:13;;;;;;;0.80;0.65;;;14.30;99.90;;;;;;5093623;28;20260;-68
2023/06/03 00:35:41;;;;;;;0.73;0.73;;;14.30;99.90;;;;;;5093004;28;20293;-69
2023/06/03 00:38:09;;;;;;;0.60;0.57;;;14.30;99.90;;;;;;5083960;28;20203;-69
2023/06/03 00:40:37;;;;;;;1.48;0.70;;;14.20;99.90;;;;;;5093174;28;20226;-69
2023/06/03 00:43:05;;;;;;;2.35;0.77;;;14.20;99.90;;;;;;5093572;28;20256;-69
2023/06/03 00:45:33;;;;;;;0.85;0.80;;;14.20;99.90;;;;;;5092976;28;20195;-69
2023/06/03 00:48:01;;;;;;;0.80;0.60;;;14.10;99.90;;;;;;5093292;28;20606;-69
2023/06/03 00:50:30;;;;;;;0.60;0.50;;;14.10;99.90;;;;;;5075124;28;20218;-69
2023/06/03 00:52:59;;;;;;;0.60;0.47;;;14.10;99.90;;;;;;5085110;28;20226;-69
2023/06/03 00:55:27;;;;;;;0.88;0.80;;;14.10;99.90;;;;;;5083323;28;20203;-69
2023/06/03 00:57:55;;;;;;;0.90;0.80;;;14.10;99.90;;;;;;5093022;28;20580;-69
2023/06/03 01:00:23;;;;;;;0.70;0.50;;;14.10;99.90;;;;;;5093019;28;20290;-69
2023/06/03 01:02:52;;;;;;;0.98;0.60;;;14.00;99.90;;;;;;5092866;28;20202;-69
2023/06/03 01:05:20;;;;;;;0.88;0.68;;;14.00;99.90;;;;;;5092832;28;20238;-70
2023/06/03 01:08:00;;;;;;;0.70;0.55;;;14.00;99.90;;;;;;5092702;28;20206;-69
2023/06/03 01:10:37;;;;;;;3.42;1.45;;;13.90;99.90;;;;;;5092967;28;20203;-69
2023/06/03 01:13:14;;;;;;;1.08;0.93;;;13.90;99.90;;;;;;5077910;28;20225;-70
2023/06/03 01:15:44;;;;;;;0.70;0.70;;;13.90;99.90;;;;;;5090193;28;20198;-69
2023/06/03 01:18:16;;;;;;;1.05;0.70;;;13.90;99.90;;;;;;5092766;28;20226;-71
2023/06/03 01:20:45;;;;;;;0.80;0.50;;;13.90;99.90;;;;;;5071165;28;20809;-70
2023/06/03 01:23:21;;;;;;;1.10;0.50;;;14.00;99.90;;;;;;5086652;28;20205;-71
2023/06/03 01:25:50;;;;;;;1.00;0.90;;;13.90;99.90;;;;;;5092054;28;20202;-72
2023/06/03 01:28:20;;;;;;;1.08;0.77;;;13.80;99.90;;;;;;5086564;28;20214;-71
2023/06/03 01:30:48;;;;;;;0.70;0.70;;;13.80;99.90;;;;;;5089251;28;20230;-71
2023/06/03 01:33:17;;;;;;;0.70;0.60;;;13.80;99.90;;;;;;5092676;28;20360;-70
2023/06/03 01:35:46;;;;;;;1.10;0.90;;;13.70;99.90;;;;;;5092066;28;20221;-70
2023/06/03 01:38:14;;;;;;;1.35;0.63;;;13.70;99.90;;;;;;5092127;28;20259;-70
2023/06/03 01:40:44;;;;;;;0.90;0.70;;;13.80;99.90;;;;;;5091981;28;20284;-70
2023/06/03 01:43:12;;;;;;;1.42;1.08;;;13.70;99.90;;;;;;5092392;28;20201;-70
2023/06/03 01:45:40;;;;;;;0.75;0.73;;;13.70;99.90;;;;;;5081384;28;20236;-70
2023/06/03 01:48:08;;;;;;;1.02;0.70;;;13.70;99.90;;;;;;5092220;28;20205;-70
2023/06/03 01:50:45;;;;;;;0.60;0.57;;;13.70;99.90;;;;;;5078853;28;20301;-70
2023/06/03 01:53:13;;;;;;;0.70;0.60;;;13.70;99.90;;;;;;5085670;28;20746;-70
2023/06/03 01:55:41;;;;;;;0.80;0.52;;;13.70;99.90;;;;;;5091518;28;20207;-70
2023/06/03 01:58:11;;;;;;;0.70;0.65;;;13.70;99.90;;;;;;5091850;28;20214;-70
2023/06/03 02:00:39;;;;;;;0.82;0.68;;;13.70;99.90;;;;;;5091695;28;20734;-70
2023/06/03 02:03:07;;;;;;;1.45;0.80;;;13.70;99.90;;;;;;5081208;28;20203;-70
2023/06/03 02:05:34;;;;;;;1.42;0.90;;;13.70;99.90;;;;;;5091637;28;20209;-70
2023/06/03 02:08:02;;;;;;;1.05;0.95;;;13.70;99.90;;;;;;5075587;28;20198;-70
2023/06/03 02:10:30;;;;;;;1.00;0.88;;;13.70;99.90;;;;;;5091796;28;20206;-70
2023/06/03 02:12:58;;;;;;;0.77;0.77;;;13.70;99.90;;;;;;5091467;28;20229;-70
2023/06/03 02:15:29;;;;;;;0.80;0.70;;;13.60;99.90;;;;;;5075307;28;20207;-70
2023/06/03 02:17:57;;;;;;;0.70;0.63;;;13.60;99.90;;;;;;5066385;28;20215;-70
2023/06/03 02:20:25;;;;;;;1.02;0.93;;;13.50;99.90;;;;;;5060869;28;20232;-69
2023/06/03 02:22:53;;;;;;;1.75;1.20;;;13.60;99.90;;;;;;5062517;28;20238;-68
2023/06/03 02:25:21;;;;;;;1.80;0.85;;;13.60;99.90;;;;;;5053453;28;20262;-69
2023/06/03 02:27:50;;;;;;;3.20;1.02;;;13.60;99.90;;;;;;5055489;28;20203;-68
2023/06/03 02:30:18;;;;;;;1.88;0.60;;;13.60;99.90;;;;;;5059298;28;20204;-69
2023/06/03 02:32:47;;;;;;;1.15;0.70;;;13.60;99.90;;;;;;5051873;28;20223;-69
2023/06/03 02:35:16;;;;;;;1.00;0.90;;;13.60;99.90;;;;;;5054708;28;20203;-70
2023/06/03 02:37:43;;;;;;;1.00;0.90;;;13.50;99.90;;;;;;5056026;28;20240;-70
2023/06/03 02:40:12;;;;;;;0.73;0.70;;;13.50;99.90;;;;;;5062997;28;20907;-69
2023/06/03 02:42:41;;;;;;;0.88;0.88;;;13.50;99.90;;;;;;5058580;28;20207;-69
2023/06/03 02:45:09;;;;;;;0.70;0.60;;;13.50;99.90;;;;;;5066015;28;21923;-69
2023/06/03 02:47:37;;;;;;;0.90;0.80;;;13.50;99.90;;;;;;5054589;28;20203;-69
2023/06/03 02:50:08;;;;;;;1.10;0.98;;;13.50;99.90;;;;;;5053296;28;20287;-69
2023/06/03 02:52:36;;;;;;;1.13;0.90;;;13.40;99.90;;;;;;5055877;28;20231;-68
2023/06/03 02:55:05;;;;;;;1.73;1.00;;;13.40;99.90;;;;;;5060187;28;20210;-69
2023/06/03 02:57:33;;;;;;;0.80;0.70;;;13.40;99.90;;;;;;5063033;28;20204;-70
2023/06/03 03:00:01;;;;;;;1.15;0.98;;;13.30;99.90;;;;;;5059030;28;20204;-69
2023/06/03 03:02:29;;;;;;;0.80;0.70;;;13.40;99.90;;;;;;5051436;28;20239;-68
2023/06/03 03:04:57;;;;;;;0.80;0.60;;;13.30;99.90;;;;;;5056514;28;20204;-74
2023/06/03 03:07:26;;;;;;;0.98;0.70;;;13.30;99.90;;;;;;5053782;28;20203;-70
2023/06/03 03:09:55;;;;;;;5.97;0.70;;;13.20;99.90;;;;;;5059810;28;20242;-71
2023/06/03 03:12:23;;;;;;;0.90;0.75;;;13.30;99.90;;;;;;5084788;28;20222;-70
2023/06/03 03:14:51;;;;;;;1.08;0.60;;;13.30;99.90;;;;;;5085376;28;20214;-69
2023/06/03 03:17:19;;;;;;;1.48;1.10;;;13.30;99.90;;;;;;5081703;28;20252;-69
2023/06/03 03:19:47;;;;;;;0.70;0.70;;;13.30;99.90;;;;;;5071706;28;20210;-70
2023/06/03 03:22:14;;;;;;;0.70;0.60;;;13.20;99.90;;;;;;5069837;28;20233;-70
2023/06/03 03:24:44;;;;;;;1.23;1.13;;;13.20;99.90;;;;;;5071293;28;20192;-69
2023/06/03 03:27:12;;;;;;;0.73;0.68;;;13.20;99.90;;;;;;5070466;28;20608;-68
2023/06/03 03:29:44;;;;;;;0.77;0.60;;;13.20;99.90;;;;;;5072984;28;20210;-69
2023/06/03 03:32:12;;;;;;;0.85;0.75;;;13.10;99.90;;;;;;5076027;28;20215;-68
2023/06/03 03:34:41;;;;;;;0.70;0.60;;;13.10;99.90;;;;;;5082067;28;20226;-70
2023/06/03 03:37:13;;;;;;;0.90;0.70;;;13.10;99.90;;;;;;5059752;28;20216;-70
2023/06/03 03:39:41;;;;;;;1.27;0.95;;;13.10;99.90;;;;;;5082719;28;20207;-71
2023/06/03 03:42:11;;;;;;;1.17;1.08;;;13.10;99.90;;;;;;5079971;28;20234;-71
2023/06/03 03:44:39;;;;;;;1.00;0.68;;;13.10;99.90;;;;;;5075746;28;20332;-71
2023/06/03 03:47:07;;;;;;;0.80;0.77;;;13.10;99.90;;;;;;5077455;28;20216;-70
2023/06/03 03:49:36;;;;;;;0.95;0.60;;;13.20;99.90;;;;;;5071825;28;20199;-70
2023/06/03 03:52:06;;;;;;;0.70;0.60;;;13.20;99.90;;;;;;5073901;28;20267;-69
2023/06/03 03:54:36;;;;;;;1.00;0.90;;;13.20;99.90;;;;;;5075680;28;20215;-68
2023/06/03 03:57:11;;;;;;;1.33;0.85;;;13.20;99.90;;;;;;5078100;28;20286;-69
2023/06/03 03:59:40;;;;;;;0.80;0.70;;;13.20;99.90;;;;;;5078302;28;20213;-69
2023/06/03 04:02:08;;;;;;;0.80;0.70;;;13.20;99.90;;;;;;5074874;28;20234;-68
2023/06/03 04:04:41;;;;;;;0.60;0.47;;;13.20;99.90;;;;;;5081711;28;20205;-68
2023/06/03 04:07:11;;;;;;;0.75;0.52;;;13.20;99.90;;;;;;5077784;28;20191;-68
2023/06/03 04:09:39;;;;;;;0.80;0.80;;;13.20;99.90;;;;;;5090706;28;20545;-68
2023/06/03 04:12:18;;;;;;;0.73;0.60;;;13.20;99.90;;;;;;5085362;28;20223;-70
2023/06/03 04:14:51;;;;;;;1.13;0.80;;;13.20;99.90;;;;;;5084266;28;20242;-70
2023/06/03 04:17:21;;;;;;;1.63;0.77;;;13.20;99.90;;;;;;5054034;28;20208;-70
2023/06/03 04:19:49;;;;;;;0.60;0.52;;;13.30;99.90;;;;;;5058471;28;20704;-71
2023/06/03 04:22:21;;;;;;;0.70;0.60;;;13.30;99.90;;;;;;5059351;28;20242;-70
2023/06/03 04:24:56;;;;;;;2.05;0.75;;;13.30;99.90;;;;;;5064443;28;20211;-70
2023/06/03 04:27:26;;;;;;;1.00;0.73;;;13.40;99.90;;;;;;5054790;28;20207;-70
2023/06/03 04:29:54;;;;;;;0.70;0.60;;;13.40;99.90;;;;;;5060761;28;20245;-70
2023/06/03 04:32:22;;;;;;;1.00;0.60;;;13.50;99.90;;;;;;5062519;28;20224;-70
2023/06/03 04:34:51;;;;;;;1.27;0.50;;;13.50;99.90;;;;;;5059404;28;20226;-70
2023/06/03 04:37:20;;;;;;;0.70;0.70;;;13.50;99.90;;;;;;5051416;28;20204;-70
2023/06/03 04:39:48;;;;;;;0.68;0.60;;;13.50;99.90;;;;;;5072054;22;21495;-62
2023/06/03 04:42:16;;;;;;;0.80;0.60;;;13.60;99.90;;;;;;5026511;28;20208;-62
2023/06/03 04:44:45;;;;;;;0.98;0.70;;;13.60;99.90;;;;;;5027259;28;20209;-62
2023/06/03 04:47:17;;;;;;;0.85;0.75;;;13.70;99.90;;;;;;5020222;28;20208;-62
2023/06/03 04:49:47;;;;;;;0.85;0.70;;;13.70;99.90;;;;;;5029175;28;20228;-62
2023/06/03 04:52:15;;;;;;;0.70;0.50;;;13.70;99.90;;;;;;5027046;28;20311;-62
2023/06/03 04:54:43;;;;;;;2.50;1.25;;;13.70;99.90;;;;;;5028734;28;20231;-62
2023/06/03 04:57:11;;;;;;;0.88;0.60;;;13.80;99.90;;;;;;5026496;28;20232;-62
2023/06/03 04:59:40;;;;;;;0.68;0.50;;;13.80;99.90;;;;;;5027551;28;20217;-62
2023/06/03 05:02:10;;;;;;;0.98;0.80;;;13.90;99.90;;;;;;5020843;28;22230;-62
2023/06/03 05:04:38;;;;;;;0.90;0.70;;;13.90;99.90;;;;;;5030675;28;20438;-62
2023/06/03 05:07:06;;;;;;;1.38;0.70;;;14.00;99.90;;;;;;5025472;28;20262;-62
2023/06/03 05:09:34;;;;;;;0.80;0.50;;;14.10;99.90;;;;;;5027074;28;21156;-62
2023/06/03 05:12:02;;;;;;;0.90;0.65;;;14.10;99.90;;;;;;5020068;28;20213;-62
2023/06/03 05:14:30;;;;;;;0.70;0.60;;;14.10;99.90;;;;;;5018976;28;20226;-62
2023/06/03 05:16:58;;;;;;;0.60;0.57;;;14.20;99.90;;;;;;5025175;28;20208;-62
2023/06/03 05:19:28;;;;;;;1.42;0.63;;;14.20;99.90;;;;;;5023128;28;20764;-62
2023/06/03 05:21:58;;;;;;;0.60;0.50;;;14.20;99.90;;;;;;5028315;28;20235;-62
2023/06/03 05:24:26;;;;;;;1.83;0.90;;;14.10;99.90;;;;;;5012659;28;20665;-62
2023/06/03 05:26:54;;;;;;;1.67;0.70;;;14.00;99.90;;;;;;5022395;28;20239;-62
2023/06/03 05:29:22;;;;;;;1.67;0.65;;;14.00;99.90;;;;;;5024237;28;20251;-63
2023/06/03 05:31:49;;;;;;;0.60;0.50;;;14.00;99.90;;;;;;5023195;28;20279;-62
2023/06/03 05:34:17;;;;;;;0.60;0.50;;;14.00;99.90;;;;;;5016175;28;20218;-62
2023/06/03 05:36:47;;;;;;;0.70;0.50;;;14.20;99.90;;;;;;5017103;28;20197;-62
2023/06/03 05:39:14;;;;;;;1.08;0.55;;;14.30;99.90;;;;;;5023751;28;20213;-62
2023/06/03 05:41:42;;;;;;;0.60;0.40;;;14.40;99.90;;;;;;5018639;28;20276;-62
2023/06/03 05:44:10;;;;;;;1.00;0.52;;;14.40;99.90;;;;;;5012873;28;20205;-62
2023/06/03 05:46:38;;;;;;;0.60;0.40;;;14.40;99.90;;;;;;5026419;28;20620;-62
2023/06/03 05:49:06;;;;;;;0.88;0.57;;;14.40;99.90;;;;;;5027354;28;20683;-62
2023/06/03 05:51:34;;;;;;;0.63;0.50;;;14.50;99.90;;;;;;5029602;28;20626;-62
2023/06/03 05:54:04;;;;;;;0.80;0.70;;;14.50;99.90;;;;;;5030221;28;20236;-62
2023/06/03 05:56:32;;;;;;;0.80;0.55;;;14.60;99.90;;;;;;5031107;28;20291;-62
2023/06/03 05:59:00;;;;;;;1.20;0.50;;;14.70;99.90;;;;;;5030872;28;20224;-62
2023/06/03 06:01:30;;;;;;;0.70;0.60;;;14.80;99.90;;;;;;5030410;28;20224;-62
2023/06/03 06:03:58;;;;;;;0.70;0.70;;;14.90;99.90;;;;;;5031107;28;20303;-62
2023/06/03 06:06:26;;;;;;;0.60;0.50;;;14.90;99.90;;;;;;5031245;28;20208;-62
2023/06/03 06:08:54;;;;;;;0.60;0.50;;;14.90;99.90;;;;;;5024149;28;20201;-62
2023/06/03 06:11:24;;;;;;;0.85;0.75;;;15.00;99.90;;;;;;5031116;28;20706;-62
2023/06/03 06:13:52;;;;;;;0.77;0.70;;;15.00;99.90;;;;;;5031245;28;20255;-63
2023/06/03 06:16:20;;;;;;;0.60;0.40;;;15.00;99.90;;;;;;5031219;28;20224;-62
2023/06/03 06:18:49;;;;;;;1.33;0.68;;;15.10;99.90;;;;;;5031200;28;20208;-62
2023/06/03 06:21:17;;;;;;;2.25;0.65;;;15.10;99.90;;;;;;5031152;28;20593;-62
2023/06/03 06:23:45;;;;;;;0.93;0.65;;;15.40;99.90;;;;;;5023675;28;20201;-62
2023/06/03 06:26:15;;;;;;;0.70;0.50;;;15.60;99.90;;;;;;5030890;28;20726;-62
2023/06/03 06:28:45;;;;;;;0.80;0.80;;;15.80;99.90;;;;;;5031133;28;20214;-62
2023/06/03 06:31:15;;;;;;;0.65;0.50;;;15.80;99.90;;;;;;5022671;28;20228;-63
2023/06/03 06:33:47;;;;;;;0.95;0.88;;;15.80;99.90;;;;;;5031240;28;20266;-62
2023/06/03 06:36:30;;;;;;;0.60;0.45;;;15.70;99.90;;;;;;5014301;28;20227;-62
2023/06/03 06:38:58;;;;;;;0.60;0.50;;;15.80;99.90;;;;;;5030751;28;20267;-63
2023/06/03 06:41:27;;;;;;;0.80;0.60;;;15.80;99.90;;;;;;5030778;28;20695;-62
2023/06/03 06:43:56;;;;;;;0.80;0.52;;;15.80;99.90;;;;;;5030885;28;20703;-62
2023/06/03 06:46:25;;;;;;;0.60;0.45;;;15.90;99.90;;;;;;5030812;28;20659;-62
2023/06/03 06:48:53;;;;;;;0.60;0.50;;;16.00;99.90;;;;;;5031121;28;20659;-62
2023/06/03 06:51:21;;;;;;;0.70;0.50;;;16.00;99.90;;;;;;5026606;28;20225;-63
2023/06/03 06:53:49;;;;;;;0.60;0.50;;;15.90;99.90;;;;;;5011144;28;20305;-63
2023/06/03 06:56:18;;;;;;;2.40;0.50;;;16.00;99.90;;;;;;5022432;28;20216;-63
2023/06/03 06:58:46;;;;;;;0.60;0.50;;;16.10;99.90;;;;;;5030538;28;20207;-65
2023/06/03 07:01:16;;;;;;;0.70;0.55;;;16.30;99.90;;;;;;5030298;28;20231;-65
2023/06/03 07:03:43;;;;;;;0.60;0.40;;;16.30;99.90;;;;;;5030383;28;20295;-64
2023/06/03 07:06:11;;;;;;;0.63;0.52;;;16.50;99.90;;;;;;5030085;28;20222;-64
2023/06/03 07:08:40;;;;;;;0.60;0.50;;;16.50;99.90;;;;;;5030361;28;20205;-64
2023/06/03 07:11:08;;;;;;;0.60;0.50;;;16.50;99.90;;;;;;5030188;28;20236;-64
2023/06/03 07:13:37;;;;;;;0.70;0.50;;;16.70;99.90;;;;;;5030610;28;20242;-64
2023/06/03 07:16:05;;;;;;;0.60;0.50;;;17.00;99.90;;;;;;5029984;28;20224;-64
2023/06/03 07:18:35;;;;;;;0.70;0.60;;;17.10;99.90;;;;;;5030018;28;20215;-64
2023/06/03 07:21:03;;;;;;;0.70;0.68;;;17.30;99.90;;;;;;5028853;28;20239;-64
2023/06/03 07:23:33;;;;;;;0.60;0.43;;;17.30;99.90;;;;;;5013186;28;20267;-64
2023/06/03 07:26:01;;;;;;;1.38;0.50;;;17.30;99.90;;;;;;5019879;28;20274;-64
2023/06/03 07:28:30;;;;;;;0.80;0.73;;;17.30;99.90;;;;;;5030261;28;20205;-63
2023/06/03 07:31:00;;;;;;;0.75;0.70;;;17.30;99.90;;;;;;5029506;28;20722;-64
2023/06/03 07:33:31;;;;;;;0.82;0.50;;;17.20;99.90;;;;;;5023456;28;20235;-64
2023/06/03 07:36:02;;;;;;;0.80;0.70;;;17.20;99.90;;;;;;5029944;28;20247;-64
2023/06/03 07:39:06;;;;;;;0.60;0.40;;;17.30;99.90;;;;;;5030279;28;20655;-64
2023/06/03 07:41:42;;;;;;;0.70;0.57;;;17.50;99.90;;;;;;5023921;28;20232;-64
2023/06/03 07:44:12;;;;;;;0.80;0.55;;;17.70;99.90;;;;;;5030141;28;20208;-64
2023/06/03 07:46:42;;;;;;;0.90;0.40;;;17.60;99.90;;;;;;5030355;28;20582;-64
2023/06/03 07:49:12;;;;;;;0.60;0.40;;;17.70;99.90;;;;;;5029873;28;20572;-63
2023/06/03 07:51:42;;;;;;;0.60;0.45;;;17.90;99.90;;;;;;5029977;28;20224;-63
2023/06/03 07:54:11;;;;;;;0.60;0.40;;;18.00;99.90;;;;;;5011602;28;20247;-64
2023/06/03 07:56:38;;;;;;;0.65;0.45;;;18.10;99.90;;;;;;5024463;28;20586;-64
2023/06/03 07:59:10;;;;;;;0.60;0.50;;;18.20;99.90;;;;;;5028324;28;20262;-64
2023/06/03 08:01:38;;;;;;;0.80;0.50;;;18.20;99.90;;;;;;5018385;28;20716;-63
2023/06/03 08:04:18;;;;;;;0.60;0.40;;;18.20;99.90;;;;;;5027789;28;20212;-64
2023/06/03 08:06:49;;;;;;;0.60;0.45;;;18.40;99.90;;;;;;5030041;28;20204;-62
2023/06/03 08:09:24;;;;;;;0.70;0.47;;;18.60;99.90;;;;;;5028130;28;20208;-63
2023/06/03 08:11:52;;;;;;;1.13;0.60;;;18.80;99.90;;;;;;5025127;28;20618;-64
2023/06/03 08:14:21;;;;;;;0.60;0.50;;;19.00;99.90;;;;;;5029791;28;20664;-63
2023/06/03 08:16:49;;;;;;;0.60;0.40;;;19.20;99.90;;;;;;5030129;28;20304;-63
2023/06/03 08:19:18;;;;;;;0.80;0.70;;;19.20;99.70;;;;;;5029809;28;20233;-63
2023/06/03 08:21:48;;;;;;;0.60;0.50;;;19.20;99.90;;;;;;5030081;28;20221;-63
2023/06/03 08:24:16;;;;;;;0.80;0.45;;;19.10;99.90;;;;;;5029799;28;20233;-64
2023/06/03 08:26:44;;;;;;;0.60;0.50;;;19.20;99.90;;;;;;5023684;28;20194;-64
2023/06/03 08:29:12;;;;;;;0.77;0.77;;;19.30;99.90;;;;;;5021332;28;20214;-63
2023/06/03 08:31:40;;;;;;;0.60;0.50;;;19.50;99.90;;;;;;5018193;28;20720;-64
2023/06/03 08:34:08;;;;;;;1.00;0.90;;;19.30;99.30;;;;;;5031392;28;20216;-63
2023/06/03 08:36:37;;;;;;;0.60;0.45;;;19.30;99.40;;;;;;5033316;28;20216;-63
2023/06/03 08:39:06;;;;;;;0.60;0.50;;;19.50;99.90;;;;;;5031798;28;20214;-63
2023/06/03 08:41:38;;;;;;;0.90;0.60;;;19.70;99.70;;;;;;5012191;28;20719;-63
2023/06/03 08:44:14;;;;;;;0.70;0.60;;;19.80;99.60;;;;;;5031173;28;20217;-63
2023/06/03 08:46:48;;;;;;;0.60;0.50;;;19.80;99.60;;;;;;5033780;28;20635;-63
2023/06/03 08:49:23;;;;;;;0.70;0.50;;;19.80;99.60;;;;;;5033198;28;20255;-63
2023/06/03 08:51:55;;;;;;;0.60;0.50;;;19.90;99.90;;;;;;5033375;28;20209;-63
2023/06/03 08:54:29;;;;;;;0.70;0.60;;;20.20;99.90;;;;;;5032982;28;20209;-63
2023/06/03 08:57:06;;;;;;;0.60;0.40;;;20.50;99.90;;;;;;5033134;28;20255;-63
2023/06/03 08:59:36;;;;;;;0.68;0.60;;;20.50;99.20;;;;;;5033238;28;20650;-63
2023/06/03 09:02:06;;;;;;;0.60;0.50;;;20.50;98.50;;;;;;5033084;28;20213;-63
2023/06/03 09:04:35;;;;;;;0.70;0.50;;;20.50;98.70;;;;;;5032663;28;20209;-63
2023/06/03 09:07:04;;;;;;;0.70;0.60;;;20.60;99.30;;;;;;5032936;28;20267;-64
2023/06/03 09:09:35;;;;;;;0.70;0.50;;;21.00;99.90;;;;;;5028466;28;20211;-64
2023/06/03 09:12:05;;;;;;;0.60;0.50;;;21.30;98.60;;;;;;5013548;28;20207;-64
2023/06/03 09:14:34;;;;;;;0.60;0.50;;;21.20;99.10;;;;;;5032727;28;20205;-64
2023/06/03 09:17:02;;;;;;;0.63;0.50;;;21.50;98.50;;;;;;5032638;28;20226;-63
2023/06/03 09:19:30;;;;;;;0.73;0.40;;;21.60;98.70;;;;;;5032783;28;20210;-63
2023/06/03 09:21:59;;;;;;;0.93;0.50;;;21.70;98.10;;;;;;5032991;28;20550;-63
2023/06/03 09:24:27;;;;;;;0.60;0.50;;;21.70;98.10;;;;;;5020790;28;20203;-63
2023/06/03 09:26:56;;;;;;;0.75;0.63;;;21.40;97.50;;;;;;5028429;28;20747;-64
2023/06/03 09:29:24;;;;;;;0.70;0.63;;;21.20;99.40;;;;;;5032437;28;20203;-63
2023/06/03 09:31:53;;;;;;;0.65;0.47;;;21.50;98.10;;;;;;5032698;28;20210;-63
2023/06/03 09:34:22;;;;;;;0.63;0.55;;;21.80;97.60;;;;;;5032181;28;20312;-63
2023/06/03 09:36:50;;;;;;;0.70;0.60;;;22.20;98.30;;;;;;5032473;28;20218;-64
2023/06/03 09:39:33;;;;;;;1.00;0.75;;;22.40;96.90;;;;;;5030258;28;20214;-63
2023/06/03 09:42:03;;;;;;;0.70;0.50;;;22.00;97.60;;;;;;5012617;28;20207;-63
2023/06/03 09:44:42;;;;;;;0.60;0.50;;;21.80;97.50;;;;;;5024476;28;20210;-63
2023/06/03 09:47:11;;;;;;;0.90;0.60;;;22.00;98.90;;;;;;5032135;28;20201;-63
2023/06/03 09:49:40;;;;;;;1.50;1.08;;;22.20;98.80;;;;;;5032401;28;20666;-63
2023/06/03 09:52:31;;;;;;;0.63;0.60;;;22.50;98.10;;;;;;5031995;28;20206;-63
2023/06/03 09:55:01;;;;;;;0.80;0.60;;;23.00;96.60;;;;;;5032142;28;20206;-63
2023/06/03 09:57:31;;;;;;;0.63;0.50;;;23.20;96.50;;;;;;5023959;28;20230;-63
2023/06/03 10:00:10;;;;;;;0.60;0.40;;;23.20;96.40;;;;;;5032198;28;20633;-64
2023/06/03 10:02:40;;;;;;;0.73;0.60;;;23.20;96.30;;;;;;5025922;28;20216;-63
2023/06/03 10:05:26;;;;;;;1.10;0.50;;;22.80;95.60;;;;;;5031762;28;20211;-63
2023/06/03 10:07:54;;;;;;;0.70;0.70;;;22.70;95.90;;;;;;5031930;28;20225;-63
2023/06/03 10:10:22;;;;;;;1.00;0.90;;;22.90;96.50;;;;;;5020600;28;20270;-63
2023/06/03 10:12:52;;;;;;;1.52;0.93;;;23.10;96.10;;;;;;5018635;28;20666;-63
2023/06/03 10:15:36;;;;;;;0.60;0.50;;;23.20;95.50;;;;;;5031254;28;20261;-64
2023/06/03 10:18:04;;;;;;;1.35;0.75;;;23.40;96.00;;;;;;5031384;28;20228;-65
2023/06/03 10:20:37;;;;;;;0.90;0.60;;;23.50;95.90;;;;;;5031631;28;20230;-64
2023/06/03 10:23:06;;;;;;;1.00;0.70;;;23.60;95.80;;;;;;5031572;28;20207;-64
2023/06/03 10:25:40;;;;;;;1.17;0.70;;;23.70;94.90;;;;;;5031362;28;20206;-64
2023/06/03 10:28:10;;;;;;;0.77;0.77;;;23.90;95.00;;;;;;5031426;28;20212;-63
2023/06/03 10:30:39;;;;;;;0.60;0.50;;;24.30;94.70;;;;;;5031422;28;20229;-64
2023/06/03 10:33:08;;;;;;;1.02;0.60;;;24.30;94.20;;;;;;5031428;28;20206;-63
2023/06/03 10:35:37;;;;;;;0.60;0.40;;;24.40;94.20;;;;;;5022955;28;20630;-64
2023/06/03 10:38:06;;;;;;;0.70;0.50;;;24.70;93.90;;;;;;5031055;28;20226;-63
2023/06/03 10:40:35;;;;;;;0.60;0.50;;;25.20;94.30;;;;;;5019194;28;20271;-64
2023/06/03 10:43:04;;;;;;;0.60;0.43;;;25.10;93.10;;;;;;5019570;28;20219;-64
2023/06/03 10:45:33;;;;;;;0.60;0.40;;;24.80;93.20;;;;;;5022938;28;20207;-64
2023/06/03 10:48:05;;;;;;;0.60;0.55;;;24.10;92.60;;;;;;5031214;28;20210;-64
2023/06/03 10:50:50;;;;;;;0.60;0.50;;;23.80;93.90;;;;;;5031098;28;20230;-64
2023/06/03 10:53:27;;;;;;;0.75;0.70;;;23.80;93.40;;;;;;5030474;28;20751;-64
2023/06/03 10:56:05;;;;;;;0.63;0.60;;;24.20;94.30;;;;;;5030858;28;20214;-63
2023/06/03 10:58:33;;;;;;;0.80;0.70;;;24.30;93.70;;;;;;5031094;28;20223;-64
2023/06/03 11:01:04;;;;;;;0.80;0.68;;;24.80;94.20;;;;;;5030944;28;20224;-64
2023/06/03 11:03:34;;;;;;;1.02;0.70;;;25.20;92.50;;;;;;5031247;28;20276;-64
2023/06/03 11:06:38;;;;;;;0.70;0.60;;;25.60;92.70;;;;;;5030894;28;20270;-64
2023/06/03 11:09:08;;;;;;;0.85;0.60;;;25.70;92.50;;;;;;5027226;28;20211;-64
2023/06/03 11:12:02;;;;;;;0.60;0.55;;;25.40;90.80;;;;;;5011067;28;20240;-64
2023/06/03 11:14:53;;;;;;;0.70;0.60;;;25.30;92.20;;;;;;5030588;28;20704;-63
2023/06/03 11:17:23;;;;;;;1.23;0.93;;;25.10;91.10;;;;;;5030638;28;20698;-63
2023/06/03 11:19:54;;;;;;;1.20;0.90;;;25.10;91.60;;;;;;5030743;28;20796;-64
2023/06/03 11:22:43;;;;;;;0.60;0.50;;;25.40;90.80;;;;;;5030875;28;20212;-64
2023/06/03 11:25:30;;;;;;;0.63;0.60;;;25.20;91.40;;;;;;5030364;28;20211;-64
2023/06/03 11:28:35;;;;;;;0.80;0.70;;;25.40;91.80;;;;;;5030791;28;20211;-64
2023/06/03 11:31:06;;;;;;;1.25;0.85;;;25.50;91.80;;;;;;5026971;28;20230;-63
2023/06/03 11:33:36;;;;;;;0.60;0.40;;;25.10;90.20;;;;;;5022819;28;20203;-64
2023/06/03 11:36:55;;;;;;;0.60;0.40;;;25.30;91.80;;;;;;5030428;28;20207;-64
2023/06/03 11:39:24;;;;;;;0.60;0.40;;;25.10;90.50;;;;;;5027223;28;20751;-64
2023/06/03 11:42:02;;;;;;;1.13;0.55;;;25.00;91.40;;;;;;5010728;28;20251;-64
2023/06/03 11:44:31;;;;;;;0.90;0.90;;;25.40;92.10;;;;;;5030068;28;20215;-64
2023/06/03 11:47:03;;;;;;;0.70;0.70;;;25.50;91.00;;;;;;5030274;28;20204;-64
2023/06/03 11:49:35;;;;;;;0.70;0.70;;;25.30;90.80;;;;;;5030549;28;20206;-64
2023/06/03 11:52:05;;;;;;;0.70;0.60;;;25.60;90.50;;;;;;5030743;28;20296;-64
2023/06/03 11:54:33;;;;;;;0.70;0.60;;;25.60;90.30;;;;;;5030243;28;20710;-64
2023/06/03 11:57:03;;;;;;;0.70;0.50;;;25.50;90.50;;;;;;5030287;28;20227;-64
2023/06/03 11:59:33;;;;;;;1.00;0.80;;;25.60;91.00;;;;;;5030313;28;20211;-64
2023/06/03 12:02:03;;;;;;;0.60;0.60;;;25.30;90.20;;;;;;5030615;28;20672;-63
2023/06/03 12:04:32;;;;;;;0.95;0.70;;;25.20;89.60;;;;;;5033487;28;20227;-64
2023/06/03 12:07:09;;;;;;;0.73;0.65;;;25.20;90.70;;;;;;5033896;28;20211;-64
2023/06/03 12:09:36;;;;;;;1.10;0.70;;;25.50;90.60;;;;;;5030289;28;20278;-64
2023/06/03 12:12:06;;;;;;;1.27;1.17;;;25.70;89.50;;;;;;5014557;28;20616;-64
2023/06/03 12:14:38;;;;;;;0.60;0.50;;;26.00;89.10;;;;;;5033802;28;20666;-64
2023/06/03 12:17:14;;;;;;;0.70;0.55;;;26.00;89.40;;;;;;5033810;28;20753;-64
2023/06/03 12:19:44;;;;;;;1.30;1.20;;;26.20;88.40;;;;;;5026682;28;20212;-64
2023/06/03 12:22:14;;;;;;;0.70;0.70;;;26.50;90.20;;;;;;5033769;28;20222;-64
2023/06/03 12:24:44;;;;;;;1.15;0.75;;;26.40;88.00;;;;;;5033962;28;20217;-64
2023/06/03 12:27:14;;;;;;;1.02;0.70;;;26.50;88.80;;;;;;5033686;28;20688;-64
2023/06/03 12:29:43;;;;;;;0.65;0.50;;;26.60;88.00;;;;;;5033891;28;20693;-64
2023/06/03 12:32:11;;;;;;;0.63;0.50;;;27.10;86.00;;;;;;5033461;28;20219;-65
2023/06/03 12:34:40;;;;;;;0.60;0.50;;;27.10;85.00;;;;;;5033705;28;20258;-64
2023/06/03 12:37:08;;;;;;;0.80;0.60;;;27.20;86.00;;;;;;5033492;28;20221;-64
2023/06/03 12:39:43;;;;;;;0.80;0.70;;;27.00;84.70;;;;;;5021542;28;20221;-63
2023/06/03 12:42:11;;;;;;;0.93;0.80;;;27.20;85.30;;;;;;5013633;28;20209;-64
2023/06/03 12:44:43;;;;;;;0.65;0.55;;;27.30;84.00;;;;;;5025802;28;20262;-64
2023/06/03 12:47:11;;;;;;;1.13;1.02;;;27.10;83.90;;;;;;5033229;28;20251;-64
2023/06/03 12:49:39;;;;;;;0.60;0.40;;;26.70;83.00;;;;;;5025608;28;20638;-64
2023/06/03 12:52:12;;;;;;;0.60;0.40;;;26.20;84.00;;;;;;5033255;28;20205;-64
2023/06/03 12:54:51;;;;;;;1.13;0.60;;;25.90;84.20;;;;;;5026525;28;20222;-64
2023/06/03 12:57:20;;;;;;;0.80;0.55;;;25.90;84.80;;;;;;5033086;28;20215;-63
2023/06/03 13:00:08;;;;;;;0.70;0.60;;;26.30;83.90;;;;;;5030194;28;20223;-64
2023/06/03 13:02:38;;;;;;;0.70;0.60;;;26.50;82.50;;;;;;5030662;28;20232;-65
2023/06/03 13:05:08;;;;;;;1.50;0.80;;;26.50;84.20;;;;;;5027949;28;20246;-66